Terminal Aerodrome Forecast
Issued by NWS Twin Cities, MN

Home | Current Version | Previous Version | Graphics & Text | Print | Product List | Glossary On
Versions: 1 2 3 4 5 6 7 8 9 10 11 12 13 14 15 16 17 18 19 20 21 22 23 24 25 26 27 28 29 30 31 32 33
000
FTUS43 KMPX 300523
TAFMSP
TAF
KMSP 300523Z 3006/3112 01007KT 3SM SHRA BR OVC028
      TEMPO 3006/3008 1 1/2SM +TSRA OVC018CB
     FM300800 35005KT P6SM SCT030 BKN250
     FM301500 35008KT P6SM SCT250=

USA.gov is the U.S. government's official web portal to all federal, state and local government web resources and services.